Time;durP1;ratioP1;P1;durP2;ratioP2;P2;SDS_P1;SDS_P2;PMS_P1;PMS_P2;Temp;Humidity;BMP_temperature;BMP_pressure;BME280_temperature;BME280_humidity;BME280_pressure;Samples;Min_cycle;Max_cycle;Signal;HPM_P1;HPM_P2
2023/10/08 00:01:55;;;;;;;2.50;1.45;;;15.40;99.90;;;;;;5058516;28;20057;-47
2023/10/08 00:04:21;;;;;;;1.60;1.50;;;14.90;99.90;;;;;;5058616;28;20140;-47
2023/10/08 00:06:47;;;;;;;1.30;1.20;;;14.90;99.90;;;;;;5061917;28;20044;-47
2023/10/08 00:09:14;;;;;;;1.55;1.35;;;14.60;99.90;;;;;;5056334;28;20040;-47
2023/10/08 00:11:40;;;;;;;2.55;1.23;;;14.30;99.90;;;;;;5054577;28;20041;-49
2023/10/08 00:14:09;;;;;;;3.05;1.33;;;14.10;99.90;;;;;;5060430;28;20048;-48
2023/10/08 00:16:39;;;;;;;2.53;1.40;;;13.90;99.90;;;;;;5058678;28;20049;-47
2023/10/08 00:19:14;;;;;;;2.97;1.00;;;13.80;99.90;;;;;;5061736;28;20679;-47
2023/10/08 00:21:41;;;;;;;0.70;0.70;;;13.70;99.90;;;;;;5059626;28;20547;-48
2023/10/08 00:24:09;;;;;;;2.25;0.63;;;;;;;;;;5060650;28;20044;-50
2023/10/08 00:26:39;;;;;;;;;;;;;;;;;;5060413;28;20083;-49
2023/10/08 00:29:06;;;;;;;1.60;0.47;;;;;;;;;;5060524;28;19920;-50
2023/10/08 00:31:40;;;;;;;0.45;0.40;;;;;;;;;;5060243;28;20049;-51
2023/10/08 00:34:08;;;;;;;2.33;0.45;;;;;;;;;;5058067;28;20148;-51
2023/10/08 00:36:35;;;;;;;1.33;0.35;;;;;;;;;;5060359;28;20052;-49
2023/10/08 00:39:02;;;;;;;2.30;0.47;;;;;;;;;;5056314;28;20128;-51
2023/10/08 00:41:30;;;;;;;1.75;0.40;;;;;;;;;;5061957;28;20056;-51
2023/10/08 00:43:59;;;;;;;1.02;0.40;;;;;;;;;;5059882;28;20053;-51
2023/10/08 00:46:32;;;;;;;0.40;0.40;;;;;;;;;;5059760;28;20547;-49
2023/10/08 00:49:11;;;;;;;0.95;0.50;;;;;;;;;;5059032;28;21507;-48
2023/10/08 00:51:40;;;;;;;0.85;0.40;;;;;;;;;;5059718;28;20117;-48
2023/10/08 00:54:17;;;;;;;1.55;0.45;;;;;;;;;;5060006;28;20051;-48
2023/10/08 00:59:21;;;;;;;1.85;0.63;;;;;;;;;;5058907;28;20049;-47
2023/10/08 01:02:05;;;;;;;3.10;0.60;;;;;;;;;;5058052;28;20043;-47
2023/10/08 01:04:34;;;;;;;1.63;0.70;;;;;;;;;;5060709;28;20040;-48
2023/10/08 01:07:01;;;;;;;2.42;0.70;;;;;;;;;;5064838;28;20059;-50
2023/10/08 01:09:35;;;;;;;1.40;0.60;;;;;;;;;;5064835;28;20040;-47
2023/10/08 01:12:27;;;;;;;0.68;0.60;;;;;;;;;;5064114;28;20313;-48
2023/10/08 01:14:54;;;;;;;2.58;1.00;;;;;;;;;;5062424;28;20638;-49
2023/10/08 01:17:24;;;;;;;1.17;0.80;;;;;;;;;;5060275;28;20051;-47
2023/10/08 01:19:55;;;;;;;1.33;0.85;;;;;;;;;;5062459;28;20401;-48
2023/10/08 01:22:22;;;;;;;1.75;0.80;;;;;;;;;;5060507;28;20050;-47
2023/10/08 01:24:48;;;;;;;1.30;0.97;;;;;;;;;;5057423;28;20122;-47
2023/10/08 01:27:24;;;;;;;2.22;1.10;;;;;;;;;;5062439;28;20052;-47
2023/10/08 01:29:53;;;;;;;2.20;1.30;;;;;;;;;;5059891;28;20140;-50
2023/10/08 01:32:23;;;;;;;2.05;1.35;;;;;;;;;;5057870;28;20395;-48
2023/10/08 01:34:49;;;;;;;2.00;1.30;;;;;;;;;;5063227;28;20062;-48
2023/10/08 01:37:19;;;;;;;2.55;1.33;;;;;;;;;;5060948;28;20052;-50
2023/10/08 01:39:46;;;;;;;2.28;1.52;;;;;;;;;;5062354;28;20643;-50
2023/10/08 01:42:20;;;;;;;2.15;1.95;;;;;;;;;;5059107;28;20105;-48
2023/10/08 01:44:55;;;;;;;2.65;2.05;;;;;;;;;;5060836;28;20052;-48
2023/10/08 01:47:25;;;;;;;2.08;1.77;;;;;;;;;;5058566;28;20060;-50
2023/10/08 01:49:58;;;;;;;2.33;2.13;;;;;;;;;;5061870;28;20770;-49
2023/10/08 01:52:24;;;;;;;2.30;2.10;;;;;;;;;;5063329;28;20084;-50
2023/10/08 01:54:54;;;;;;;4.05;2.30;;;;;;;;;;5062413;28;20044;-48
2023/10/08 01:57:20;;;;;;;2.22;1.90;;;;;;;;;;5060159;28;20075;-49
2023/10/08 01:59:46;;;;;;;2.40;2.17;;;;;;;;;;5062709;28;20061;-47
2023/10/08 02:02:14;;;;;;;1.73;1.63;;;;;;;;;;5061744;28;20125;-48
2023/10/08 02:04:40;;;;;;;1.75;1.50;;;;;;;;;;5060777;28;20049;-47
2023/10/08 02:07:08;;;;;;;2.67;1.50;;;;;;;;;;5067039;28;20051;-50
2023/10/08 02:09:34;;;;;;;1.33;1.23;;;;;;;;;;5062256;28;20505;-48
2023/10/08 02:12:00;;;;;;;1.95;1.48;;;;;;;;;;5063815;28;20048;-48
2023/10/08 02:14:30;;;;;;;2.58;1.45;;;;;;;;;;5061508;28;20036;-51
2023/10/08 02:16:56;;;;;;;1.52;1.42;;;;;;;;;;5062446;28;20036;-52
2023/10/08 02:19:28;;;;;;;1.40;1.30;;;;;;;;;;5061768;28;20462;-48
2023/10/08 02:21:55;;;;;;;1.60;1.50;;;;;;;;;;5061851;28;20052;-50
2023/10/08 02:24:24;;;;;;;2.97;1.52;;;;;;;;;;5061375;28;20085;-51
2023/10/08 02:26:50;;;;;;;1.40;1.30;;;;;;;;;;5063072;28;20036;-47
2023/10/08 02:29:16;;;;;;;1.80;1.40;;;;;;;;;;5062815;28;20655;-48
2023/10/08 02:31:43;;;;;;;2.65;1.45;;;;;;;;;;5061494;28;20105;-50
2023/10/08 02:34:09;;;;;;;2.58;1.60;;;;;;;;;;5063267;28;20040;-48
2023/10/08 02:36:36;;;;;;;1.67;1.58;;;;;;;;;;5061021;28;20131;-47
2023/10/08 02:39:13;;;;;;;2.42;1.80;;;;;;;;;;5056202;28;20041;-50
2023/10/08 02:41:41;;;;;;;2.97;1.67;;;;;;;;;;5060973;28;20562;-50
2023/10/08 02:44:09;;;;;;;2.08;1.50;;;;;;;;;;5061398;28;20144;-48
2023/10/08 02:46:37;;;;;;;1.98;1.60;;;;;;;;;;5061320;28;20056;-47
2023/10/08 02:49:03;;;;;;;;;;;;;;;;;;5062729;28;20817;-48
2023/10/08 02:51:30;;;;;;;2.03;1.40;;;;;;;;;;5061068;28;20250;-48
2023/10/08 02:53:56;;;;;;;2.00;1.88;;;;;;;;;;5061403;28;20041;-47
2023/10/08 02:56:22;;;;;;;2.08;1.70;;;;;;;;;;5060757;28;20040;-48
2023/10/08 02:58:48;;;;;;;2.45;1.60;;;;;;;;;;5044752;28;20347;-47
2023/10/08 03:01:14;;;;;;;1.95;1.83;;;;;;;;;;5061231;28;20421;-47
2023/10/08 03:03:46;;;;;;;2.30;1.70;;;;;;;;;;5055000;28;20103;-50
2023/10/08 03:06:14;;;;;;;1.88;1.70;;;;;;;;;;5060144;28;20066;-48
2023/10/08 03:08:41;;;;;;;1.90;1.80;;;;;;;;;;5060162;28;20059;-48
2023/10/08 03:11:16;;;;;;;2.38;1.90;;;;;;;;;;5061027;28;20052;-47
2023/10/08 03:13:52;;;;;;;2.13;1.98;;;;;;;;;;5062975;28;20095;-50
2023/10/08 03:16:27;;;;;;;2.38;2.17;;;;;;;;;;5059131;28;20360;-50
2023/10/08 03:18:54;;;;;;;4.10;2.15;;;;;;;;;;5060235;28;20041;-47
2023/10/08 03:21:21;;;;;;;3.25;2.20;;;;;;;;;;5057026;28;20097;-49
2023/10/08 03:23:47;;;;;;;2.63;2.10;;;;;;;;;;5058858;28;20055;-47
2023/10/08 03:26:32;;;;;;;2.75;2.55;;;;;;;;;;5062156;28;20062;-48
2023/10/08 03:28:58;;;;;;;2.22;1.90;;;;;;;;;;5060675;28;20083;-47
2023/10/08 03:34:12;;;;;;;6.32;2.58;;;;;;;;;;5059468;28;20041;-50
2023/10/08 03:36:44;;;;;;;3.20;2.20;;;;;;;;;;5059627;28;20055;-49
2023/10/08 03:39:13;;;;;;;4.88;3.03;;;;;;;;;;5060447;28;20047;-47
2023/10/08 03:41:40;;;;;;;3.58;2.40;;;;;;;;;;5043067;28;20053;-47
2023/10/08 03:44:16;;;;;;;2.65;2.45;;;;;;;;;;5057809;28;20061;-49
2023/10/08 03:46:43;;;;;;;4.25;2.58;;;;;;;;;;5052291;28;20082;-47
2023/10/08 03:51:51;;;;;;;2.78;2.47;;;;;;;;;;5059537;28;20059;-50
2023/10/08 03:54:18;;;;;;;4.10;3.00;;;;;;;;;;5060270;28;20117;-47
2023/10/08 03:56:49;;;;;;;2.85;2.53;;;;;;;;;;5058998;28;20049;-48
2023/10/08 03:59:29;;;;;;;4.15;3.10;;;;;;;;;;5059803;28;20127;-49
2023/10/08 04:01:59;;;;;;;3.15;2.75;;;;;;;;;;5059884;28;20076;-49
2023/10/08 04:04:48;;;;;;;4.05;2.85;;;;;;;;;;5060254;28;20056;-47
2023/10/08 04:07:28;;;;;;;3.25;2.75;;;;;;;;;;5059429;28;20131;-47
2023/10/08 04:10:05;;;;;;;4.03;2.80;;;;;;;;;;5059315;28;20082;-48
2023/10/08 04:12:34;;;;;;;3.30;3.00;;;;;;;;;;5059119;28;20041;-49
2023/10/08 04:15:01;;;;;;;3.47;2.35;;;;;;;;;;5060630;28;20040;-51
2023/10/08 04:17:29;;;;;;;4.83;2.50;;;;;;;;;;5060709;28;21588;-50
2023/10/08 04:19:58;;;;;;;3.67;2.30;;;;;;;;;;5057034;28;20398;-47
2023/10/08 04:22:24;;;;;;;2.80;2.40;;;;;;;;;;5059699;28;20520;-47
2023/10/08 04:24:50;;;;;;;3.45;2.67;;;;;;;;;;5060963;28;20082;-47
2023/10/08 04:27:16;;;;;;;2.88;2.58;;;;;;;;;;5060167;28;20040;-47
2023/10/08 04:29:42;;;;;;;3.63;2.40;;;;;;;;;;5061337;28;20124;-50
2023/10/08 04:32:11;;;;;;;2.50;2.25;;;;;;;;;;5059067;28;20045;-51
2023/10/08 04:34:37;;;;;;;2.55;2.30;;;;;;;;;;5060693;28;20041;-48
2023/10/08 04:37:12;;;;;;;2.97;1.90;;;;;;;;;;5059549;28;20458;-49
2023/10/08 04:39:40;;;;;;;3.65;2.28;;;;;;;;;;5060757;28;20048;-48
2023/10/08 04:42:10;;;;;;;2.25;1.95;;;;;;;;;;5063893;28;20043;-49
2023/10/08 04:44:39;;;;;;;2.35;2.05;;;;;;;;;;5062188;28;20072;-47
2023/10/08 04:47:05;;;;;;;3.85;1.83;;;;;;;;;;5063489;28;20041;-47
2023/10/08 04:49:33;;;;;;;7.43;2.03;;;;;;;;;;5063597;28;20175;-49
2023/10/08 04:52:08;;;;;;;1.70;1.60;;;;;;;;;;5062713;28;20475;-47
2023/10/08 04:54:39;;;;;;;1.92;1.83;;;;;;;;;;5064052;28;20056;-50
2023/10/08 04:57:06;;;;;;;3.17;1.80;;;;;;;;;;5064502;28;20040;-49
2023/10/08 04:59:33;;;;;;;2.92;2.17;;;;;;;;;;5063012;28;20049;-47
2023/10/08 05:12:50;;;;;;;3.80;2.28;;;;;;;;;;5064418;28;20059;-49
2023/10/08 05:28:35;;;;;;;3.63;2.08;;;;;;;;;;5001570;28;20053;-49
2023/10/08 05:36:50;;;;;;;3.70;2.25;;;;;;;;;;5000221;28;19921;-47
2023/10/08 05:40:11;;;;;;;3.90;2.20;;;;;;;;;;5002297;28;20529;-50
2023/10/08 05:42:20;;;;;;;3.08;2.22;;;;;;;;;;4999846;28;20523;-47
2023/10/08 05:45:06;;;;;;;3.63;2.40;;;;;;;;;;5001769;28;20054;-49
2023/10/08 05:55:27;;;;;;;2.22;2.00;;;;;;;;;;5001321;28;21430;-47
2023/10/08 05:58:13;;;;;;;4.35;2.00;;;;;;;;;;5001492;28;20046;-49
2023/10/08 06:01:29;;;;;;;3.00;2.03;;;;;;;;;;5044133;28;20060;-51
2023/10/08 06:03:32;;;;;;;3.72;1.98;;;;;;;;;;5057563;28;20083;-49
2023/10/08 06:06:35;;;;;;;4.95;2.30;;;;;;;;;;5061948;28;20056;-50
2023/10/08 06:08:51;;;;;;;3.30;1.95;;;;;;;;;;5061327;28;20379;-48
2023/10/08 06:12:29;;;;;;;3.78;1.98;;;;;;;;;;5061633;28;20109;-47
2023/10/08 06:17:23;;;;;;;5.28;2.17;;;13.00;99.90;;;;;;5067325;28;20040;-47
2023/10/08 06:19:52;;;;;;;2.72;2.25;;;13.10;99.90;;;;;;5055231;28;20483;-50
2023/10/08 06:22:18;;;;;;;4.50;2.28;;;13.00;99.90;;;;;;5060137;28;20056;-47
2023/10/08 06:24:44;;;;;;;4.30;2.00;;;13.00;99.90;;;;;;5060098;28;20060;-50
2023/10/08 06:27:16;;;;;;;4.25;2.17;;;13.10;99.90;;;;;;5064604;28;20052;-47
2023/10/08 06:29:44;;;;;;;4.15;2.05;;;13.10;99.90;;;;;;5063161;28;20376;-47
2023/10/08 06:32:11;;;;;;;;;;;13.10;99.90;;;;;;5057863;28;20052;-46
2023/10/08 06:34:40;;;;;;;5.53;2.10;;;13.20;99.90;;;;;;5063339;28;19920;-46
2023/10/08 06:37:07;;;;;;;4.68;2.05;;;13.20;99.90;;;;;;5059215;28;20495;-49
2023/10/08 06:39:47;;;;;;;5.18;2.20;;;13.30;99.90;;;;;;5064288;28;20120;-49
2023/10/08 06:42:14;;;;;;;5.07;2.00;;;13.30;99.90;;;;;;5057439;28;20527;-47
2023/10/08 06:44:42;;;;;;;8.17;2.70;;;13.30;99.90;;;;;;5060375;28;20187;-47
2023/10/08 06:47:09;;;;;;;6.00;2.03;;;13.20;99.90;;;;;;5066392;28;20392;-47
2023/10/08 06:49:35;;;;;;;6.97;2.30;;;13.20;99.90;;;;;;5062036;28;20045;-47
2023/10/08 06:52:02;;;;;;;6.72;2.25;;;13.30;99.90;;;;;;5066711;28;20062;-47
2023/10/08 06:54:30;;;;;;;4.18;1.80;;;13.30;99.90;;;;;;5065678;28;20056;-50
2023/10/08 06:56:56;;;;;;;6.22;2.05;;;13.30;99.90;;;;;;5065954;28;20056;-47
2023/10/08 06:59:25;;;;;;;5.38;1.92;;;13.30;99.90;;;;;;5068902;28;20039;-49
2023/10/08 07:01:51;;;;;;;4.43;1.95;;;13.30;99.90;;;;;;5070886;28;20067;-48
2023/10/08 07:04:18;;;;;;;4.80;1.73;;;13.30;99.90;;;;;;5065318;28;20432;-50
2023/10/08 07:06:46;;;;;;;4.78;1.83;;;13.30;99.90;;;;;;5064011;28;20048;-49
2023/10/08 07:11:54;;;;;;;2.63;1.70;;;13.40;99.90;;;;;;5068982;28;20079;-48
2023/10/08 07:14:22;;;;;;;5.65;1.90;;;13.60;99.90;;;;;;5066586;28;20036;-47
2023/10/08 07:16:52;;;;;;;;;;;13.40;99.90;;;;;;5064462;28;20041;-48
2023/10/08 07:19:18;;;;;;;3.67;2.00;;;13.60;99.90;;;;;;5061584;28;19920;-49
2023/10/08 07:21:47;;;;;;;4.75;1.85;;;13.40;99.90;;;;;;5063348;28;20045;-48
2023/10/08 07:24:21;;;;;;;4.63;2.08;;;13.40;99.90;;;;;;5057490;28;20044;-51
2023/10/08 07:26:49;;;;;;;4.95;2.05;;;13.70;99.90;;;;;;5058400;28;20157;-50
2023/10/08 07:29:19;;;;;;;6.20;2.25;;;13.70;99.90;;;;;;5059527;28;20079;-48
2023/10/08 07:31:48;;;;;;;4.85;1.75;;;13.60;99.90;;;;;;5057472;28;20074;-48
2023/10/08 07:34:18;;;;;;;3.85;1.60;;;13.80;99.90;;;;;;5063462;28;20045;-48
2023/10/08 07:36:47;;;;;;;4.95;1.83;;;13.90;99.90;;;;;;5055659;28;20040;-47
2023/10/08 07:39:43;;;;;;;7.53;2.08;;;14.00;99.90;;;;;;5061828;28;20059;-49
2023/10/08 07:42:07;;;;;;;6.80;1.60;;;14.20;99.90;;;;;;5068812;28;20051;-48
2023/10/08 07:44:38;;;;;;;3.83;1.30;;;14.20;99.90;;;;;;5060244;28;20415;-50
2023/10/08 07:47:05;;;;;;;6.18;1.45;;;14.30;99.90;;;;;;5068296;28;20059;-50
2023/10/08 07:49:35;;;;;;;5.93;1.63;;;14.40;99.90;;;;;;5057160;28;20120;-48
2023/10/08 07:52:04;;;;;;;3.35;1.45;;;14.40;99.90;;;;;;5061377;28;20057;-47
2023/10/08 07:54:34;;;;;;;5.78;1.42;;;14.50;99.90;;;;;;5063353;28;20156;-48
2023/10/08 07:57:11;;;;;;;3.28;1.20;;;14.50;99.90;;;;;;5064575;28;20048;-50
2023/10/08 07:59:41;;;;;;;6.78;1.38;;;14.40;99.90;;;;;;5055272;28;20108;-48
2023/10/08 08:02:11;;;;;;;4.65;1.27;;;14.30;99.90;;;;;;5060238;28;20128;-47
2023/10/08 08:04:39;;;;;;;6.30;1.48;;;14.30;99.90;;;;;;5053289;28;20593;-48
2023/10/08 08:07:06;;;;;;;5.35;1.42;;;14.30;99.90;;;;;;5058006;28;20041;-50
2023/10/08 08:09:37;;;;;;;6.10;1.60;;;14.40;99.90;;;;;;5059335;28;20140;-49
2023/10/08 08:12:07;;;;;;;5.72;1.52;;;14.50;99.90;;;;;;5061908;28;20045;-48
2023/10/08 08:14:33;;;;;;;6.13;1.90;;;14.60;99.90;;;;;;5059392;28;20499;-47
2023/10/08 08:17:13;;;;;;;4.93;1.67;;;14.70;99.90;;;;;;5062120;28;20042;-48
2023/10/08 08:19:44;;;;;;;5.72;2.25;;;14.60;99.90;;;;;;5062104;28;20058;-47
2023/10/08 08:22:15;;;;;;;6.15;1.27;;;14.60;99.90;;;;;;5062573;28;20052;-50
2023/10/08 08:24:44;;;;;;;6.75;1.60;;;14.60;99.90;;;;;;5060844;28;20037;-51
2023/10/08 08:27:23;;;;;;;5.20;1.58;;;14.70;99.90;;;;;;5083684;28;20036;-48
2023/10/08 08:29:55;;;;;;;7.13;1.60;;;14.90;99.90;;;;;;5055988;28;20106;-50
2023/10/08 08:32:22;;;;;;;4.43;1.52;;;15.20;99.90;;;;;;5057456;28;20045;-49
2023/10/08 08:34:50;;;;;;;3.10;1.48;;;15.20;99.90;;;;;;5068554;28;20390;-48
2023/10/08 08:37:22;;;;;;;3.63;1.45;;;15.40;99.90;;;;;;5052325;28;20048;-50
2023/10/08 08:39:48;;;;;;;4.97;1.40;;;15.30;99.90;;;;;;5068505;28;20068;-47
2023/10/08 08:42:18;;;;;;;5.68;1.60;;;15.40;99.90;;;;;;5058550;28;20525;-48
2023/10/08 08:44:48;;;;;;;5.30;1.27;;;15.50;99.90;;;;;;5057420;28;20510;-48
2023/10/08 08:47:17;;;;;;;5.82;1.67;;;15.50;99.90;;;;;;5059666;28;20045;-49
2023/10/08 08:49:44;;;;;;;6.22;1.38;;;15.60;99.90;;;;;;5055025;28;20033;-48
2023/10/08 08:52:11;;;;;;;6.47;1.38;;;15.60;99.90;;;;;;5057905;28;20045;-48
2023/10/08 08:54:36;;;;;;;5.00;1.50;;;15.70;99.90;;;;;;5062839;28;20073;-47
2023/10/08 08:57:13;;;;;;;7.90;1.48;;;;;;;;;;5059677;28;20037;-48
2023/10/08 08:59:48;;;;;;;4.25;1.20;;;15.80;99.90;;;;;;5056955;28;20096;-51
2023/10/08 09:02:15;;;;;;;8.55;1.70;;;15.70;99.90;;;;;;5082582;28;20076;-47
2023/10/08 09:04:41;;;;;;;102.50;5.78;;;15.90;99.90;;;;;;5059094;28;20091;-50
2023/10/08 09:07:07;;;;;;;5.78;1.23;;;16.00;99.90;;;;;;5056510;28;20052;-50
2023/10/08 09:09:35;;;;;;;5.00;1.55;;;15.70;99.90;;;;;;5080274;28;20048;-49
2023/10/08 09:12:01;;;;;;;5.20;1.10;;;16.00;99.90;;;;;;5071079;28;20044;-47
2023/10/08 09:14:31;;;;;;;3.13;1.13;;;15.70;99.90;;;;;;5063591;28;20482;-48
2023/10/08 09:16:59;;;;;;;4.80;1.50;;;15.70;99.90;;;;;;5064419;28;20053;-47
2023/10/08 09:19:26;;;;;;;6.63;1.65;;;15.80;99.90;;;;;;5064770;28;20455;-47
2023/10/08 09:22:09;;;;;;;7.53;1.27;;;15.60;99.90;;;;;;5066208;28;20040;-47
2023/10/08 09:24:36;;;;;;;7.95;1.35;;;15.50;99.90;;;;;;5062787;28;20075;-47
2023/10/08 09:27:15;;;;;;;6.95;1.40;;;15.50;99.90;;;;;;5054195;28;20045;-46
2023/10/08 09:29:42;;;;;;;5.28;1.08;;;15.50;99.90;;;;;;5069416;28;20094;-47
2023/10/08 09:32:24;;;;;;;5.00;1.27;;;15.50;99.90;;;;;;5064307;28;20041;-47
2023/10/08 09:34:52;;;;;;;4.32;1.30;;;15.60;99.90;;;;;;5071101;28;20052;-47
2023/10/08 09:37:21;;;;;;;5.78;1.85;;;15.60;99.90;;;;;;5070016;28;20153;-47
2023/10/08 09:39:51;;;;;;;4.45;1.30;;;15.60;99.90;;;;;;5071097;28;20037;-47
2023/10/08 09:42:18;;;;;;;4.57;1.20;;;15.70;99.90;;;;;;5057104;28;20060;-48
2023/10/08 09:44:44;;;;;;;;;;;15.80;99.90;;;;;;5067262;28;20052;-48
2023/10/08 09:47:11;;;;;;;8.07;1.23;;;15.90;99.90;;;;;;5069420;28;19920;-49
2023/10/08 09:49:47;;;;;;;5.17;1.43;;;15.90;99.90;;;;;;5064357;28;20399;-47
2023/10/08 09:52:16;;;;;;;6.70;1.52;;;15.90;99.90;;;;;;5062853;28;20056;-50
2023/10/08 09:55:03;;;;;;;4.47;1.23;;;15.70;99.90;;;;;;5063027;28;20036;-47
2023/10/08 09:57:29;;;;;;;7.53;1.70;;;15.60;99.90;;;;;;5065243;28;20536;-48
2023/10/08 09:59:57;;;;;;;6.10;1.30;;;15.60;99.90;;;;;;5056353;28;20068;-47
2023/10/08 10:02:26;;;;;;;4.38;1.50;;;15.70;99.90;;;;;;5059442;28;20445;-48
2023/10/08 10:04:54;;;;;;;6.00;1.48;;;15.70;99.90;;;;;;5071169;28;20048;-47
2023/10/08 10:07:21;;;;;;;4.10;1.17;;;16.00;99.90;;;;;;5065381;28;20048;-47
2023/10/08 10:09:53;;;;;;;7.65;1.70;;;15.90;99.90;;;;;;5068938;28;20083;-49
2023/10/08 10:12:25;;;;;;;7.20;2.05;;;16.10;99.90;;;;;;5065539;28;20063;-47
2023/10/08 10:14:55;;;;;;;5.38;1.50;;;16.10;99.90;;;;;;5059958;28;20036;-50
2023/10/08 10:17:22;;;;;;;6.10;1.30;;;16.40;99.90;;;;;;5056795;28;20033;-49
2023/10/08 10:19:54;;;;;;;4.97;1.10;;;16.50;99.90;;;;;;5064305;28;20040;-48
2023/10/08 10:22:34;;;;;;;4.82;1.42;;;16.50;99.90;;;;;;5080970;28;20045;-47
2023/10/08 10:25:21;;;;;;;5.40;1.50;;;16.50;99.90;;;;;;5061848;28;20113;-48
2023/10/08 10:28:08;;;;;;;6.97;1.58;;;16.80;99.90;;;;;;5065615;28;20045;-47
2023/10/08 10:30:34;;;;;;;4.85;1.52;;;16.90;99.90;;;;;;5059221;28;20048;-47
2023/10/08 10:33:05;;;;;;;7.55;1.42;;;17.00;99.90;;;;;;5071385;28;20063;-47
2023/10/08 10:35:32;;;;;;;4.18;1.42;;;17.20;99.90;;;;;;5067674;28;20045;-48
2023/10/08 10:38:03;;;;;;;7.78;1.30;;;16.80;99.90;;;;;;5064655;28;20045;-48
2023/10/08 10:40:29;;;;;;;7.85;1.30;;;16.60;99.90;;;;;;5064531;28;20045;-47
2023/10/08 10:43:00;;;;;;;6.90;1.67;;;16.60;99.90;;;;;;5061723;28;20064;-46
2023/10/08 10:46:19;;;;;;;8.07;1.73;;;16.90;99.90;;;;;;5062785;28;20060;-46
2023/10/08 10:48:25;;;;;;;6.25;1.63;;;16.60;99.90;;;;;;5060123;28;20105;-49
2023/10/08 10:53:44;;;;;;;8.40;1.50;;;16.60;99.90;;;;;;5061049;28;20045;-47
2023/10/08 10:56:18;;;;;;;7.30;1.30;;;16.90;99.90;;;;;;5060920;28;20325;-47
2023/10/08 10:58:47;;;;;;;6.22;1.50;;;16.70;99.90;;;;;;5060859;28;20051;-47
2023/10/08 11:01:23;;;;;;;4.38;1.30;;;16.90;99.90;;;;;;5057802;28;20422;-47
2023/10/08 11:03:52;;;;;;;6.30;1.40;;;17.00;99.90;;;;;;5061229;28;20146;-46
2023/10/08 11:06:25;;;;;;;9.23;1.60;;;16.90;99.90;;;;;;5057278;28;20057;-47
2023/10/08 11:08:52;;;;;;;5.03;1.60;;;16.80;99.90;;;;;;5070469;28;20083;-47
2023/10/08 11:11:18;;;;;;;6.07;1.40;;;16.70;99.90;;;;;;5068220;28;20040;-47
2023/10/08 11:13:51;;;;;;;5.65;1.50;;;16.60;99.90;;;;;;5064723;28;20045;-49
2023/10/08 11:16:19;;;;;;;5.10;1.70;;;16.60;99.90;;;;;;5051851;28;20112;-47
2023/10/08 11:18:49;;;;;;;7.97;1.30;;;16.80;99.90;;;;;;5052612;28;20041;-50
2023/10/08 11:21:23;;;;;;;5.35;1.08;;;17.00;99.90;;;;;;5059373;28;20059;-47
2023/10/08 11:23:53;;;;;;;4.07;1.35;;;17.00;99.90;;;;;;5057335;28;20119;-48
2023/10/08 11:26:32;;;;;;;6.22;1.52;;;17.00;99.90;;;;;;5071464;28;20040;-50
2023/10/08 11:29:03;;;;;;;9.35;1.63;;;17.50;99.90;;;;;;5070114;28;20544;-47
2023/10/08 11:31:29;;;;;;;5.38;1.30;;;17.50;99.90;;;;;;5071120;28;20052;-47
2023/10/08 11:34:08;;;;;;;6.25;1.77;;;;;;;;;;5066109;28;20044;-50
2023/10/08 11:36:48;;;;;;;7.53;1.33;;;18.10;99.90;;;;;;5062852;28;20131;-49
2023/10/08 11:39:21;;;;;;;6.93;1.73;;;18.10;99.90;;;;;;5051787;28;20095;-47
2023/10/08 11:42:06;;;;;;;3.83;1.20;;;18.20;99.90;;;;;;5060764;28;20071;-47
2023/10/08 11:44:35;;;;;;;4.57;1.23;;;;;;;;;;5071463;28;20410;-50
2023/10/08 11:47:11;;;;;;;5.80;1.38;;;18.40;99.90;;;;;;5068755;28;20465;-48
2023/10/08 11:49:43;;;;;;;8.98;1.63;;;18.40;99.90;;;;;;5061980;28;20471;-48
2023/10/08 11:52:11;;;;;;;6.25;1.83;;;18.30;99.90;;;;;;5070269;28;20044;-50
2023/10/08 11:54:36;;;;;;;3.80;1.25;;;18.40;99.90;;;;;;5063463;28;20132;-49
2023/10/08 11:57:02;;;;;;;9.77;1.50;;;18.50;99.90;;;;;;5054904;28;20563;-47
2023/10/08 11:59:29;;;;;;;5.57;1.33;;;18.40;99.90;;;;;;5056177;28;20466;-49
2023/10/08 12:01:56;;;;;;;5.03;1.50;;;18.40;99.90;;;;;;5070592;28;20055;-47
2023/10/08 12:04:22;;;;;;;6.40;1.60;;;18.20;99.90;;;;;;5068114;28;20529;-47
2023/10/08 12:06:51;;;;;;;4.82;1.35;;;18.00;99.90;;;;;;5051769;28;20495;-47
2023/10/08 12:09:21;;;;;;;5.72;1.13;;;18.00;99.90;;;;;;5065166;28;20040;-47
2023/10/08 12:11:47;;;;;;;4.47;1.10;;;18.10;99.90;;;;;;5066283;28;20098;-47
2023/10/08 12:14:14;;;;;;;7.93;1.27;;;18.10;99.90;;;;;;5070689;28;20044;-47
2023/10/08 12:16:41;;;;;;;5.32;1.30;;;18.00;99.90;;;;;;5061158;28;20045;-47
2023/10/08 12:19:16;;;;;;;4.78;1.42;;;18.00;99.90;;;;;;5052625;28;20048;-47
2023/10/08 12:21:46;;;;;;;4.93;1.65;;;18.10;99.90;;;;;;5069922;28;20048;-47
2023/10/08 12:24:12;;;;;;;4.18;1.05;;;18.10;99.90;;;;;;5057981;28;20407;-48
2023/10/08 12:26:45;;;;;;;5.18;1.20;;;18.30;99.90;;;;;;5064313;28;20040;-47
2023/10/08 12:29:14;;;;;;;4.45;1.33;;;18.50;99.90;;;;;;5058511;28;20040;-47
2023/10/08 12:31:40;;;;;;;4.43;1.33;;;18.60;99.90;;;;;;5061124;28;20052;-47
2023/10/08 12:34:06;;;;;;;5.28;1.05;;;18.70;99.90;;;;;;5051818;28;20041;-47
2023/10/08 12:36:36;;;;;;;5.55;1.88;;;18.70;99.90;;;;;;5071315;28;20047;-49
2023/10/08 12:39:09;;;;;;;4.93;1.70;;;18.50;99.90;;;;;;5071585;28;20099;-47
2023/10/08 12:41:38;;;;;;;4.80;1.45;;;18.40;99.90;;;;;;5067136;28;20041;-47
2023/10/08 12:44:07;;;;;;;5.22;1.35;;;18.50;99.90;;;;;;5059050;28;20068;-47
2023/10/08 12:46:33;;;;;;;4.78;1.40;;;18.30;99.90;;;;;;5055785;28;20049;-47
2023/10/08 12:49:01;;;;;;;5.45;1.20;;;18.60;99.90;;;;;;5063370;28;20049;-48
2023/10/08 12:51:31;;;;;;;6.15;1.30;;;18.60;99.90;;;;;;5055198;28;20032;-49
2023/10/08 12:54:03;;;;;;;6.10;1.60;;;18.70;99.90;;;;;;5044882;28;20395;-49
2023/10/08 12:56:38;;;;;;;5.55;1.55;;;18.70;99.90;;;;;;5057881;28;20028;-47
2023/10/08 12:59:06;;;;;;;4.03;1.02;;;19.00;99.90;;;;;;5054888;28;20044;-49
2023/10/08 13:01:36;;;;;;;5.68;1.58;;;18.90;99.90;;;;;;5060745;28;20045;-49
2023/10/08 13:04:07;;;;;;;5.35;1.23;;;19.00;99.90;;;;;;5074589;28;20396;-47
2023/10/08 13:06:37;;;;;;;6.03;1.38;;;19.10;99.90;;;;;;5073838;28;20121;-47
2023/10/08 13:09:09;;;;;;;4.70;1.38;;;19.00;99.90;;;;;;5071850;28;20466;-47
2023/10/08 13:11:34;;;;;;;5.55;1.58;;;19.10;99.90;;;;;;5074680;28;20044;-48
2023/10/08 13:14:00;;;;;;;5.20;1.58;;;19.20;99.90;;;;;;5073201;28;20083;-47
2023/10/08 13:16:31;;;;;;;2.95;1.35;;;19.00;99.90;;;;;;5054884;28;20041;-47
2023/10/08 13:18:58;;;;;;;4.82;1.60;;;18.90;99.90;;;;;;5056501;28;20041;-49
2023/10/08 13:21:28;;;;;;;5.93;1.45;;;18.80;99.90;;;;;;5073071;28;20419;-49
2023/10/08 13:23:59;;;;;;;8.43;2.17;;;18.40;99.90;;;;;;5055928;28;20132;-47
2023/10/08 13:26:30;;;;;;;4.85;1.88;;;18.30;99.90;;;;;;5068146;28;20093;-47
2023/10/08 13:28:59;;;;;;;5.28;1.77;;;18.50;99.90;;;;;;5073664;28;20048;-47
2023/10/08 13:31:26;;;;;;;5.90;2.20;;;18.40;99.90;;;;;;5072411;28;20410;-47
2023/10/08 13:33:56;;;;;;;5.38;2.00;;;18.30;99.90;;;;;;5073801;28;20044;-47
2023/10/08 13:36:22;;;;;;;3.25;1.40;;;18.20;99.90;;;;;;5069136;28;20095;-48
2023/10/08 13:38:48;;;;;;;4.68;1.70;;;;;;;;;;5073530;28;20040;-50
2023/10/08 13:41:15;;;;;;;4.43;2.03;;;17.90;99.90;;;;;;5060561;28;20542;-48
2023/10/08 13:43:51;;;;;;;6.15;1.83;;;17.60;99.90;;;;;;5054450;28;20067;-47
2023/10/08 13:46:19;;;;;;;4.28;1.77;;;17.60;99.90;;;;;;5066382;28;20187;-47
2023/10/08 13:48:49;;;;;;;4.95;2.10;;;17.60;99.90;;;;;;5071916;28;20085;-46
2023/10/08 13:51:20;;;;;;;6.55;1.90;;;17.60;99.90;;;;;;5072480;28;20171;-47
2023/10/08 13:54:02;;;;;;;5.38;1.90;;;17.70;99.90;;;;;;5069351;28;20586;-47
2023/10/08 13:56:30;;;;;;;4.20;1.75;;;17.70;99.90;;;;;;5057482;28;20053;-47
2023/10/08 13:59:12;;;;;;;6.18;1.90;;;17.80;99.90;;;;;;5057793;28;20045;-47
2023/10/08 14:01:46;;;;;;;4.85;1.70;;;17.70;99.90;;;;;;5056962;28;20401;-47
2023/10/08 14:04:15;;;;;;;8.02;1.80;;;17.60;99.90;;;;;;5054411;28;20080;-49
2023/10/08 14:06:47;;;;;;;6.55;1.70;;;17.70;99.90;;;;;;5053115;28;20143;-48
2023/10/08 14:09:20;;;;;;;6.38;1.73;;;17.80;99.90;;;;;;5073985;28;20120;-47
2023/10/08 14:11:46;;;;;;;5.72;1.67;;;17.70;99.90;;;;;;5056687;28;20063;-47
2023/10/08 14:14:12;;;;;;;8.40;2.25;;;17.70;99.90;;;;;;5052020;28;20395;-48
2023/10/08 14:16:46;;;;;;;4.60;1.60;;;17.70;99.90;;;;;;5053709;28;20071;-48
2023/10/08 14:19:14;;;;;;;5.53;1.50;;;17.60;99.90;;;;;;5054080;28;20048;-47
2023/10/08 14:21:49;;;;;;;4.10;1.60;;;17.60;99.90;;;;;;5068547;28;20055;-47
2023/10/08 14:24:16;;;;;;;4.65;1.63;;;17.60;99.90;;;;;;5070076;28;20037;-48
2023/10/08 14:26:43;;;;;;;6.22;1.65;;;17.60;99.90;;;;;;5072656;28;20041;-46
2023/10/08 14:29:14;;;;;;;5.93;1.67;;;17.60;99.90;;;;;;5072132;28;20631;-47
2023/10/08 14:31:42;;;;;;;5.00;1.48;;;17.60;99.90;;;;;;5073001;28;20048;-47
2023/10/08 14:45:02;;;;;;;5.28;1.83;;;17.70;99.90;;;;;;5061595;28;20056;-47
2023/10/08 14:47:28;;;;;;;6.15;1.90;;;17.50;99.90;;;;;;5073211;28;20111;-50
2023/10/08 14:49:53;;;;;;;5.88;1.60;;;17.50;99.90;;;;;;5072225;28;20120;-47